Pagrindinis puslapis
METAR-TAF:

METAR-TAF

Oro uostai :

Orlando Executive Airport

Orlandas, Florida, Jungtinės Amerikos Valstijos

platuma: 28-32-47N, ilguma: 081-20-09W, Aukštis: 34 m

Dabartinis oras

Ataskaita buvo paskelbta 27 minutes, ne 08:30 UTC
Vėjas 9 kt iš Šiaurės Vakarų
Temperatūra 13°C
Drėgmė 82%
Slėgis 1017 hPa
Matomumas: 16.1 km
Su prošvaistėmis ne aukštis 2200 ft
Su prošvaistėmis ne aukštis 6000 ft

METAR: KORL 270830Z AUTO 32009KT 10SM BKN022 BKN060 13/10 A3002 RMK AO2 RAB0754E30 P0001 T01330100

Laikas: 03:57 (08:57 UTC)


TAF: trūkstamas

Orai ataskaitas ir orų prognozės (METAR, TAF).

turimą stotys yra geltonos ir raudonos taškus žemėlapyje.

Perkelti pele per norėdami pamatyti stoties vardą.

Tada spustelėkite, norėdami matyti oro stebėjimo ir prognozės.

Norėdami pakeisti žemėlapį: spustelėkite ant žalios mygtukų su juodo kryžiaus žemyn,; žalią mygtuką su brūkšneliu, jei norite nutolinti; arba žalių rodyklių gretimoms žemėlapius.


METAR-TAF: